Decoded Metar for CYYN (SWIFT CURRENT in SK, CANADA) (IATA:YYN) | Meteo·Mobile Aviation Weather
aviador You're here:

CYYN Decoded Metar

SWIFT CURRENT in SK, CANADA
Report Time2018-09-20 02:00:00
UTC Time2018-09-20 02:15:07
Flight Rules vfr VFR
Wind130° at 06 kt
W.Decomp.*RWY 12: 6.0 kt HW 0.3 kt LCW
RWY 04: 1.3 kt HW 5.8 kt RCW
W.Rank130° ranks 19
Current wind is below 130° avg. (9.3)
Visibility9999 m
Phenomena:N/A
Clouds:Overcast 075 Hf
Expected CloudBase > 2,000 ft AGL from Temp-Dew spread
Ceiling7,500 ft
Temp09°C (ISA -1)
Dew Point04°C (71% RH)
AAT5.5°C
QNH1020 hPa
Density Alt2,487 ft
Elevation2,684 ft
Report Wrong Elevation
Raw Report
CYYN 200200Z AUTO 13006KT 9SM OVC075 09/04 A3012 RMK SLP218=

Extra information for CYYN:More info

Metar Taf Metar & Taf Last 4 Metars F.Rules Stats Wind Profile Meteogram Temp Stats Airport Information Weather charts Add Link Nearby VenuesMetar ALERT Operation Metar Decoded Social comments